Time;durP1;ratioP1;P1;durP2;ratioP2;P2;SDS_P1;SDS_P2;PMS_P1;PMS_P2;Temp;Humidity;BMP_temperature;BMP_pressure;BME280_temperature;BME280_humidity;BME280_pressure;Samples;Min_cycle;Max_cycle;Signal;HPM_P1;HPM_P2
2021/04/19 00:00:13;;;;;;;65.85;21.25;;;;;;;;;;5012959;28;20896;-81
2021/04/19 00:02:40;;;;;;;65.25;20.70;;;;;;;;;;5011717;28;20376;-80
2021/04/19 00:05:10;;;;;;;61.63;22.03;;;;;;;;;;5013024;28;20405;-80
2021/04/19 00:07:37;;;;;;;117.93;27.60;;;;;;;;;;5013030;28;20367;-80
2021/04/19 00:10:04;;;;;;;69.63;20.33;;;;;;;;;;5012729;28;20951;-81
2021/04/19 00:12:29;;;;;;;54.43;18.33;;;;;;;;;;5012746;28;20367;-80
2021/04/19 00:14:56;;;;;;;64.50;19.85;;;;;;;;;;5013090;28;20371;-81
2021/04/19 00:17:22;;;;;;;65.93;19.80;;;;;;;;;;5011605;28;20382;-80
2021/04/19 00:19:48;;;;;;;55.22;17.85;;;;;;;;;;5013103;28;20497;-80
2021/04/19 00:22:13;;;;;;;39.88;17.65;;;;;;;;;;5012655;28;20370;-80
2021/04/19 00:24:39;;;;;;;86.18;23.95;;;;;;;;;;5011567;28;20379;-80
2021/04/19 00:27:06;;;;;;;48.50;19.42;;;;;;;;;;5012435;28;20366;-80
2021/04/19 00:29:32;;;;;;;66.07;22.47;;;;;;;;;;5012836;28;20493;-80
2021/04/19 00:31:58;;;;;;;49.20;19.30;;;;;;;;;;5011343;28;20987;-80
2021/04/19 00:34:24;;;;;;;32.75;17.55;;;;;;;;;;5012859;28;20466;-80
2021/04/19 00:36:50;;;;;;;34.38;18.17;;;;;;;;;;5012023;28;20413;-80
2021/04/19 00:39:16;;;;;;;30.90;17.25;;;;;;;;;;5011139;28;20873;-80
2021/04/19 00:41:42;;;;;;;43.97;19.95;;;;;;;;;;5012514;28;20369;-80
2021/04/19 00:44:08;;;;;;;25.80;17.42;;;;;;;;;;5012624;28;20402;-80
2021/04/19 00:46:34;;;;;;;27.80;17.53;;;;;;;;;;5012110;28;20457;-80
2021/04/19 00:49:01;;;;;;;38.43;20.20;;;;;;;;;;5012168;28;20375;-80
2021/04/19 00:51:27;;;;;;;36.92;20.70;;;;;;;;;;5012407;28;20380;-80
2021/04/19 00:53:53;;;;;;;66.43;27.48;;;;;;;;;;5012151;28;20367;-80
2021/04/19 00:56:19;;;;;;;56.97;27.10;;;;;;;;;;5012068;28;20383;-80
2021/04/19 00:58:46;;;;;;;56.28;28.63;;;;;;;;;;5011711;28;20461;-81
2021/04/19 01:01:12;;;;;;;53.20;26.33;;;;;;;;;;5011444;28;20788;-80
2021/04/19 01:03:38;;;;;;;85.22;32.10;;;;;;;;;;5011406;28;20379;-80
2021/04/19 01:06:05;;;;;;;76.97;32.13;;;;;;;;;;5011447;28;20375;-80
2021/04/19 01:08:31;;;;;;;80.25;32.70;;;;;;;;;;5009636;28;20378;-80
2021/04/19 01:10:57;;;;;;;87.13;33.90;;;;;;;;;;5011323;28;20387;-80
2021/04/19 01:13:23;;;;;;;103.77;35.87;;;;;;;;;;5011247;28;20441;-80
2021/04/19 01:15:49;;;;;;;127.17;40.90;;;;;;;;;;5010100;28;20379;-80
2021/04/19 01:18:15;;;;;;;134.68;44.60;;;;;;;;;;5010914;28;20375;-80
2021/04/19 01:20:41;;;;;;;105.47;39.65;;;;;;;;;;5011668;28;20397;-80
2021/04/19 01:23:07;;;;;;;84.97;37.60;;;;;;;;;;5011109;28;20695;-80
2021/04/19 01:25:34;;;;;;;102.57;38.73;;;;;;;;;;5011395;28;20447;-80
2021/04/19 01:28:00;;;;;;;116.72;41.45;;;;;;;;;;5011291;28;20412;-80
2021/04/19 01:30:30;;;;;;;115.25;39.17;;;;;;;;;;5009930;28;20390;-80
2021/04/19 01:32:56;;;;;;;114.72;42.55;;;;;;;;;;5010037;28;20386;-80
2021/04/19 01:35:22;;;;;;;130.10;45.60;;;;;;;;;;5010000;28;20417;-80
2021/04/19 01:37:48;;;;;;;106.47;42.63;;;;;;;;;;5009597;28;20865;-79
2021/04/19 01:40:15;;;;;;;202.60;56.42;;;;;;;;;;5009539;28;20399;-80
2021/04/19 01:42:41;;;;;;;138.30;49.60;;;;;;;;;;5011040;28;20459;-80
2021/04/19 01:45:08;;;;;;;147.33;48.30;;;;;;;;;;5011013;28;20788;-80
2021/04/19 01:47:34;;;;;;;101.07;45.13;;;;;;;;;;5009098;28;20412;-80
2021/04/19 01:50:06;;;;;;;124.30;49.05;;;;;;;;;;5010970;28;20722;-80
2021/04/19 01:52:32;;;;;;;164.10;50.88;;;;;;;;;;5009627;28;20414;-80
2021/04/19 01:54:57;;;;;;;138.82;47.17;;;;;;;;;;5009367;28;20379;-80
2021/04/19 01:57:23;;;;;;;149.13;52.97;;;;;;;;;;5010642;28;20382;-80
2021/04/19 01:59:50;;;;;;;118.88;48.35;;;;;;;;;;5010649;28;20919;-80
2021/04/19 02:02:19;;;;;;;134.57;48.78;;;;;;;;;;5010606;28;20862;-80
2021/04/19 02:05:04;;;;;;;175.90;51.97;;;;;;;;;;5010585;28;20815;-80
2021/04/19 02:07:53;;;;;;;137.10;49.55;;;;;;;;;;5010088;28;20446;-80
2021/04/19 02:10:37;;;;;;;125.73;49.37;;;;;;;;;;5007701;28;20399;-80
2021/04/19 02:13:16;;;;;;;156.13;50.65;;;;;;;;;;5010483;28;20403;-80
2021/04/19 02:15:51;;;;;;;200.90;52.15;;;;;;;;;;5009961;28;20499;-80
2021/04/19 02:18:43;;;;;;;182.35;57.88;;;;;;;;;;5009936;28;20386;-80
2021/04/19 02:21:10;;;;;;;212.18;55.10;;;;;;;;;;5010110;28;20932;-79
2021/04/19 02:23:37;;;;;;;219.73;56.97;;;;;;;;;;5010437;28;20452;-80
2021/04/19 02:26:08;;;;;;;209.43;58.30;;;;;;;;;;5010499;28;20368;-79
2021/04/19 02:28:36;;;;;;;185.27;57.93;;;;;;;;;;5009775;28;20429;-80
2021/04/19 02:31:08;;;;;;;247.50;61.88;;;;;;;;;;5010168;28;20446;-80
2021/04/19 02:33:39;;;;;;;176.43;59.28;;;;;;;;;;5008791;28;20375;-80
2021/04/19 02:36:06;;;;;;;107.22;49.05;;;;;;;;;;5010125;28;20368;-80
2021/04/19 02:38:34;;;;;;;92.55;44.17;;;;;;;;;;5008446;28;20371;-80
2021/04/19 02:41:01;;;;;;;213.45;59.40;;;;;;;;;;5010337;28;20378;-80
2021/04/19 02:43:27;;;;;;;118.73;49.10;;;;;;;;;;5010335;28;20399;-80
2021/04/19 02:45:54;;;;;;;262.27;56.20;;;;;;;;;;5010044;28;20413;-80
2021/04/19 02:48:24;;;;;;;257.95;57.67;;;;;;;;;;5008394;28;20405;-80
2021/04/19 02:50:50;;;;;;;281.45;57.97;;;;;;;;;;5015248;28;20379;-79
2021/04/19 02:53:18;;;;;;;118.35;47.33;;;;;;;;;;5013110;28;20386;-80
2021/04/19 02:55:44;;;;;;;156.52;52.47;;;;;;;;;;5011103;28;20487;-80
2021/04/19 02:58:11;;;;;;;242.65;58.15;;;;;;;;;;5015240;28;20355;-80
2021/04/19 03:00:41;;;;;;;213.30;57.50;;;;;;;;;;5013647;28;20413;-80
2021/04/19 03:03:10;;;;;;;202.38;54.30;;;;;;;;;;5008618;28;20741;-80
2021/04/19 03:05:37;;;;;;;168.50;47.53;;;;;;;;;;5009946;28;20523;-80
2021/04/19 03:08:06;;;;;;;192.88;50.20;;;;;;;;;;5009621;28;20371;-80
2021/04/19 03:10:33;;;;;;;172.80;49.13;;;;;;;;;;5008520;28;20458;-80
2021/04/19 03:13:00;;;;;;;178.30;50.05;;;;;;;;;;5009762;28;20371;-80
2021/04/19 03:15:31;;;;;;;131.18;46.72;;;;;;;;;;5009547;28;20394;-80
2021/04/19 03:18:00;;;;;;;122.45;43.67;;;;;;;;;;5008278;28;20407;-80
2021/04/19 03:20:29;;;;;;;162.93;46.97;;;;;;;;;;5009964;28;20399;-80
2021/04/19 03:22:55;;;;;;;236.83;49.03;;;;;;;;;;5009862;28;20458;-80
2021/04/19 03:25:23;;;;;;;196.45;49.15;;;;;;;;;;5009805;28;20462;-81
2021/04/19 03:27:50;;;;;;;215.73;57.47;;;;;;;;;;5012020;28;20410;-80
2021/04/19 03:30:17;;;;;;;185.68;47.88;;;;;;;;;;5013649;28;20407;-81
2021/04/19 03:32:45;;;;;;;155.45;46.17;;;;;;;;;;5013510;28;20409;-80
2021/04/19 03:35:14;;;;;;;138.85;45.65;;;;;;;;;;5013515;28;20375;-81
2021/04/19 03:37:40;;;;;;;114.57;43.85;;;;;;;;;;5012854;28;20937;-80
2021/04/19 03:40:13;;;;;;;177.98;47.22;;;;;;;;;;5011871;28;20411;-80
2021/04/19 03:42:40;;;;;;;213.15;51.65;;;;;;;;;;5013648;28;20367;-81
2021/04/19 03:45:11;;;;;;;158.80;44.00;;;;;;;;;;5013511;28;20405;-80
2021/04/19 03:47:37;;;;;;;107.23;39.57;;;;;;;;;;5013005;28;20367;-80
2021/04/19 03:50:04;;;;;;;196.23;48.10;;;;;;;;;;5011717;28;20441;-80
2021/04/19 03:52:35;;;;;;;181.55;46.92;;;;;;;;;;5013164;28;20620;-80
2021/04/19 03:55:03;;;;;;;162.95;50.80;;;;;;;;;;5013157;28;20389;-80
2021/04/19 03:57:31;;;;;;;132.35;45.95;;;;;;;;;;5012534;28;20961;-80
2021/04/19 04:00:00;;;;;;;147.13;47.72;;;;;;;;;;5012857;28;20493;-80
2021/04/19 04:02:27;;;;;;;153.63;49.95;;;;;;;;;;5012880;28;20454;-80
2021/04/19 04:04:53;;;;;;;140.57;47.77;;;;;;;;;;5011394;28;20375;-80
2021/04/19 04:07:19;;;;;;;110.40;46.20;;;;;;;;;;5012266;28;20398;-80
2021/04/19 04:09:46;;;;;;;104.38;46.70;;;;;;;;;;5012721;28;20387;-80
2021/04/19 04:12:12;;;;;;;98.70;46.58;;;;;;;;;;5012758;28;20382;-80
2021/04/19 04:14:48;;;;;;;95.68;50.45;;;;;;;;;;5012761;28;20410;-80
2021/04/19 04:17:15;;;;;;;84.88;45.83;;;;;;;;;;5012429;28;20379;-80
2021/04/19 04:19:41;;;;;;;90.60;48.03;;;;;;;;;;5012501;28;20477;-80
2021/04/19 04:22:08;;;;;;;104.80;47.97;;;;;;;;;;5012455;28;20451;-80
2021/04/19 04:24:34;;;;;;;88.13;46.97;;;;;;;;;;5012746;28;20371;-81
2021/04/19 04:27:00;;;;;;;113.97;48.10;;;;;;;;;;5011085;28;20363;-81
2021/04/19 04:29:26;;;;;;;129.53;52.93;;;;;;;;;;5012568;28;20386;-81
2021/04/19 04:31:52;;;;;;;93.43;43.80;;;;;;;;;;5012616;28;20441;-80
2021/04/19 04:34:18;;;;;;;90.75;45.88;;;;;;;;;;5010875;28;20789;-80
2021/04/19 04:36:44;;;;;;;93.05;41.50;;;;;;;;;;5012474;28;20410;-80
2021/04/19 04:39:10;;;;;;;95.47;41.85;;;;;;;;;;5011697;28;20801;-81
2021/04/19 04:41:36;;;;;;;105.88;43.40;;;;;;;;;;5023961;28;20405;-81
2021/04/19 04:44:02;;;;;;;101.45;42.72;;;;;;;;;;5031549;28;20433;-88
2021/04/19 04:46:54;;;;;;;82.47;41.00;;;;;;;;;;5014044;28;20387;-84
2021/04/19 04:49:25;;;;;;;79.70;37.85;;;;;;;;;;5012215;28;20791;-84
2021/04/19 04:51:52;;;;;;;118.90;42.50;;;;;;;;;;5032492;28;20382;-81
2021/04/19 04:54:19;;;;;;;119.20;41.45;;;;;;;;;;5016705;28;20387;-83
2021/04/19 04:56:49;;;;;;;159.68;44.28;;;;;;;;;;5012465;28;20405;-82
2021/04/19 04:59:15;;;;;;;156.27;44.60;;;;;;;;;;5024908;28;20409;-80
2021/04/19 05:01:43;;;;;;;171.65;49.83;;;;;;;;;;5032246;28;20365;-80
2021/04/19 05:04:09;;;;;;;146.20;44.63;;;;;;;;;;5021146;28;20753;-81
2021/04/19 05:06:35;;;;;;;137.68;43.47;;;;;;;;;;5031982;28;20701;-81
2021/04/19 05:09:02;;;;;;;171.50;57.40;;;;;;;;;;5047032;28;20417;-82
2021/04/19 05:11:28;;;;;;;103.40;41.80;;;;;;;;;;5030619;28;20389;-85
2021/04/19 05:14:04;;;;;;;104.13;39.00;;;;;;;;;;5030276;28;20427;-82
2021/04/19 05:16:30;;;;;;;117.00;42.97;;;;;;;;;;5032010;28;20870;-82
2021/04/19 05:19:00;;;;;;;63.22;38.13;;;;;;;;;;5031462;28;20467;-85
2021/04/19 05:21:27;;;;;;;83.03;36.95;;;;;;;;;;5031965;28;20365;-80
2021/04/19 05:23:54;;;;;;;67.40;36.00;;;;;;;;;;5047081;28;20389;-81
2021/04/19 05:26:20;;;;;;;127.25;43.10;;;;;;;;;;5031687;28;20362;-84
2021/04/19 05:28:47;;;;;;;61.72;33.33;;;;;;;;;;5046228;28;20746;-85
2021/04/19 05:31:13;;;;;;;59.75;33.47;;;;;;;;;;5031674;28;20373;-80
2021/04/19 05:33:39;;;;;;;63.90;33.58;;;;;;;;;;5046801;28;20447;-85
2021/04/19 05:36:08;;;;;;;82.65;34.28;;;;;;;;;;5031385;28;20380;-81
2021/04/19 05:38:35;;;;;;;71.90;30.92;;;;;;;;;;5046765;28;20381;-85
2021/04/19 05:41:01;;;;;;;88.78;32.70;;;;;;;;;;5031558;28;20381;-82
2021/04/19 05:43:27;;;;;;;98.90;32.15;;;;;;;;;;5046912;28;20748;-86
2021/04/19 05:45:53;;;;;;;70.67;30.57;;;;;;;;;;5031840;28;20369;-84
2021/04/19 05:48:19;;;;;;;62.47;33.15;;;;;;;;;;5032399;28;20539;-84
2021/04/19 05:50:48;;;;;;;87.78;34.90;;;;;;;;;;5031898;28;20378;-84
2021/04/19 05:53:14;;;;;;;70.03;33.42;;;;;;;;;;5032743;28;20874;-84
2021/04/19 05:55:41;;;;;;;79.07;31.35;;;;;;;;;;5048044;28;20480;-84
2021/04/19 05:58:26;;;;;;;93.35;34.08;;;;;;;;;;5030828;28;20819;-81
2021/04/19 06:01:05;;;;;;;61.60;29.20;;;;;;;;;;5030959;28;20389;-86
2021/04/19 06:03:46;;;;;;;50.92;31.83;;;;;;;;;;5031321;28;20364;-84
2021/04/19 06:06:18;;;;;;;64.18;30.58;;;;;;;;;;5046482;28;20468;-84
2021/04/19 06:08:58;;;;;;;58.57;34.40;;;;;;;;;;5029043;28;20411;-79
2021/04/19 06:11:27;;;;;;;50.53;34.72;;;;;;;;;;5030541;28;20377;-86
2021/04/19 06:13:54;;;;;;;39.90;33.33;;;;;;;;;;5046249;28;20476;-82
2021/04/19 06:16:20;;;;;;;37.30;31.67;;;;;;;;;;5030826;28;20377;-82
2021/04/19 06:18:47;;;;;;;40.83;31.90;;;;;;;;;;5030562;28;20362;-82
2021/04/19 06:21:13;;;;;;;40.38;30.83;;;;;;;;;;5027419;28;20455;-83
2021/04/19 06:23:43;;;;;;;39.28;29.63;;;;;;;;;;5027080;28;20903;-90
2021/04/19 06:26:09;;;;;;;33.77;29.50;;;;;;;;;;5025661;28;20471;-85
2021/04/19 06:28:37;;;;;;;36.85;32.22;;;;;;;;;;5027058;28;20389;-80
2021/04/19 06:31:05;;;;;;;42.50;34.55;;;;;;;;;;5033228;28;20362;-83
2021/04/19 06:33:33;;;;;;;36.85;32.83;;;;;;;;;;5026640;28;20736;-81
2021/04/19 06:36:00;;;;;;;41.67;34.88;;;;;;;;;;5028737;28;20385;-83
2021/04/19 06:38:26;;;;;;;36.63;32.70;;;;;;;;;;5029473;28;20475;-80
2021/04/19 06:40:52;;;;;;;38.97;34.78;;;;;;;;;;5028036;28;20837;-85
2021/04/19 06:43:18;;;;;;;40.35;35.95;;;;;;;;;;5028411;28;20807;-80
2021/04/19 06:45:45;;;;;;;39.55;35.35;;;;;;;;;;5027457;28;20373;-82
2021/04/19 06:48:11;;;;;;;38.78;34.65;;;;;;;;;;5026760;28;20370;-83
2021/04/19 06:50:39;;;;;;;40.28;35.97;;;;;;;;;;5026316;28;20377;-80
2021/04/19 06:53:05;;;;;;;42.55;37.10;;;;;;;;;;5028213;28;20377;-79
2021/04/19 06:55:32;;;;;;;40.05;35.80;;;;;;;;;;5026590;28;20839;-83
2021/04/19 06:57:59;;;;;;;37.55;33.28;;;;;;;;;;5027489;28;20728;-82
2021/04/19 07:00:26;;;;;;;36.47;32.75;;;;;;;;;;5028066;28;20396;-83
2021/04/19 07:02:53;;;;;;;37.72;33.72;;;;;;;;;;5030385;28;20390;-82
2021/04/19 07:05:20;;;;;;;37.45;33.58;;;;;;;;;;5030850;28;20393;-79
2021/04/19 07:07:58;;;;;;;35.80;32.13;;;;;;;;;;5030460;28;20460;-79
2021/04/19 07:10:24;;;;;;;34.83;31.35;;;;;;;;;;5032442;28;20389;-81
2021/04/19 07:12:50;;;;;;;34.42;30.95;;;;;;;;;;5030203;28;20463;-79
2021/04/19 07:15:18;;;;;;;34.80;31.20;;;;;;;;;;5029413;28;20946;-82
2021/04/19 07:17:45;;;;;;;35.42;31.83;;;;;;;;;;5031407;28;20369;-82
2021/04/19 07:20:12;;;;;;;37.10;33.30;;;;;;;;;;5025032;28;20406;-79
2021/04/19 07:22:39;;;;;;;36.58;32.85;;;;;;;;;;5012539;28;20449;-80
2021/04/19 07:25:05;;;;;;;38.13;34.15;;;;;;;;;;5020740;28;20369;-81
2021/04/19 07:27:31;;;;;;;40.63;36.42;;;;;;;;;;5029933;28;20748;-81
2021/04/19 07:29:57;;;;;;;39.08;35.10;;;;;;;;;;5032212;28;20377;-82
2021/04/19 07:32:37;;;;;;;39.15;35.08;;;;;;;;;;5032504;28;20373;-80
2021/04/19 07:35:05;;;;;;;42.37;37.97;;;;;;;;;;5032465;28;20477;-82
2021/04/19 07:37:31;;;;;;;42.30;37.90;;;;;;;;;;5031151;28;20443;-81
2021/04/19 07:39:58;;;;;;;40.25;36.05;;;;;;;;;;5032702;28;20424;-81
2021/04/19 07:42:24;;;;;;;42.80;38.42;;;;;;;;;;5035739;28;20358;-80
2021/04/19 07:44:51;;;;;;;40.57;36.47;;;;;;;;;;5038243;28;20374;-83
2021/04/19 07:47:21;;;;;;;40.37;36.27;;;;;;;;;;5033125;28;20394;-80
2021/04/19 07:50:06;;;;;;;41.13;36.97;;;;;;;;;;5033415;28;20377;-79
2021/04/19 07:52:35;;;;;;;39.60;35.55;;;;;;;;;;5033064;28;20750;-80
2021/04/19 07:55:05;;;;;;;41.35;37.08;;;;;;;;;;5032113;28;20743;-79
2021/04/19 07:57:31;;;;;;;39.47;35.27;;;;;;;;;;5033077;28;20877;-83
2021/04/19 07:59:57;;;;;;;40.33;36.23;;;;;;;;;;5033038;28;20393;-79
2021/04/19 08:02:23;;;;;;;36.30;32.50;;;;;;;;;;5031639;28;20826;-81
2021/04/19 08:04:51;;;;;;;38.50;34.47;;;;;;;;;;5032350;28;20836;-79
2021/04/19 08:07:17;;;;;;;36.58;32.78;;;;;;;;;;5031459;28;20478;-81
2021/04/19 08:09:52;;;;;;;36.83;33.15;;;;;;;;;;5032533;28;20384;-80
2021/04/19 08:12:18;;;;;;;37.95;34.05;;;;;;;;;;5031670;28;20365;-80
2021/04/19 08:14:54;;;;;;;35.85;32.20;;;;;;;;;;5032624;28;20453;-82
2021/04/19 08:17:20;;;;;;;35.13;31.63;;;;;;;;;;5032346;28;20377;-82
2021/04/19 08:19:46;;;;;;;30.55;27.55;;;;;;;;;;5032298;28;20399;-80
2021/04/19 08:22:13;;;;;;;31.42;28.33;;;;;;;;;;5032445;28;20362;-79
2021/04/19 08:24:39;;;;;;;33.90;30.50;;;;;;;;;;5030798;28;20408;-79
2021/04/19 08:27:05;;;;;;;33.27;29.97;;;;;;;;;;5031976;28;20457;-80
2021/04/19 08:29:38;;;;;;;33.83;30.42;;;;;;;;;;5032128;28;20887;-80
2021/04/19 08:32:07;;;;;;;37.60;33.70;;;;;;;;;;5032375;28;20373;-82
2021/04/19 08:34:35;;;;;;;35.40;31.80;;;;;;;;;;5032416;28;20381;-82
2021/04/19 08:37:01;;;;;;;35.60;31.80;;;;;;;;;;5032064;28;20373;-80
2021/04/19 08:39:27;;;;;;;34.43;30.97;;;;;;;;;;5030268;28;20460;-80
2021/04/19 08:41:54;;;;;;;36.83;33.10;;;;;;;;;;5031573;28;20439;-80
2021/04/19 08:44:20;;;;;;;36.58;32.88;;;;;;;;;;5031617;28;20361;-81
2021/04/19 08:46:46;;;;;;;34.45;30.95;;;;;;;;;;5030019;28;20856;-82
2021/04/19 08:49:13;;;;;;;33.80;30.42;;;;;;;;;;5030752;28;20381;-82
2021/04/19 08:51:39;;;;;;;35.00;31.42;;;;;;;;;;5030338;28;20740;-80
2021/04/19 08:54:06;;;;;;;33.92;30.42;;;;;;;;;;5031786;28;20459;-79
2021/04/19 08:56:32;;;;;;;31.93;28.67;;;;;;;;;;5031923;28;20461;-81
2021/04/19 08:58:59;;;;;;;31.70;28.60;;;;;;;;;;5031738;28;20456;-80
2021/04/19 09:01:27;;;;;;;30.98;27.83;;;;;;;;;;5030347;28;20848;-81
2021/04/19 09:04:03;;;;;;;29.98;26.98;;;;;;;;;;5031358;28;20420;-79
2021/04/19 09:06:46;;;;;;;32.08;28.77;;;;;;;;;;5029944;28;20374;-80
2021/04/19 09:09:33;;;;;;;33.90;30.25;;;;;;;;;;5031001;28;20370;-85
2021/04/19 09:12:19;;;;;;;34.75;29.83;;;;;;;;;;5031231;28;20369;-80
2021/04/19 09:14:47;;;;;;;33.20;29.80;;;;;;;;;;5030469;28;20369;-82
2021/04/19 09:17:23;;;;;;;31.38;28.30;;;;;;;;;;5029364;28;20377;-79
2021/04/19 09:19:55;;;;;;;31.33;28.02;;;;;;;;;;5030392;28;20417;-81
2021/04/19 09:22:21;;;;;;;32.97;29.48;;;;;;;;;;5030688;28;20358;-81
2021/04/19 09:24:59;;;;;;;32.53;29.23;;;;;;;;;;5028623;28;20377;-79
2021/04/19 09:27:44;;;;;;;28.37;25.53;;;;;;;;;;5031063;28;20450;-80
2021/04/19 09:30:29;;;;;;;29.10;26.05;;;;;;;;;;5030751;28;20472;-82
2021/04/19 09:33:07;;;;;;;29.90;26.80;;;;;;;;;;5031217;28;20381;-80
2021/04/19 09:35:39;;;;;;;30.97;27.73;;;;;;;;;;5031097;28;20852;-81
2021/04/19 09:38:13;;;;;;;29.48;26.48;;;;;;;;;;5031161;28;20852;-82
2021/04/19 09:40:46;;;;;;;31.65;28.45;;;;;;;;;;5030904;28;20401;-81
2021/04/19 09:43:12;;;;;;;33.70;30.17;;;;;;;;;;5031219;28;20368;-81
2021/04/19 09:45:51;;;;;;;32.70;29.17;;;;;;;;;;5030966;28;20369;-80
2021/04/19 09:48:26;;;;;;;32.80;29.40;;;;;;;;;;5030468;28;20366;-81
2021/04/19 09:50:56;;;;;;;33.55;29.95;;;;;;;;;;5030998;28;20379;-82
2021/04/19 09:53:22;;;;;;;34.65;30.90;;;;;;;;;;5030407;28;20397;-81
2021/04/19 09:55:48;;;;;;;34.20;30.50;;;;;;;;;;5030889;28;20384;-80
2021/04/19 09:58:15;;;;;;;32.92;29.40;;;;;;;;;;5030675;28;20705;-80
2021/04/19 10:00:41;;;;;;;33.70;30.10;;;;;;;;;;5030787;28;20397;-79
2021/04/19 10:03:07;;;;;;;34.38;30.30;;;;;;;;;;5030631;28;20787;-81
2021/04/19 10:05:34;;;;;;;33.28;29.67;;;;;;;;;;5030331;28;20384;-81
2021/04/19 10:08:04;;;;;;;33.90;30.30;;;;;;;;;;5030792;28;20875;-82
2021/04/19 10:10:30;;;;;;;33.60;30.10;;;;;;;;;;5029855;28;20463;-83
2021/04/19 10:12:56;;;;;;;34.53;30.77;;;;;;;;;;5029918;28;20369;-83
2021/04/19 10:15:23;;;;;;;33.70;30.10;;;;;;;;;;5029968;28;20748;-81
2021/04/19 10:17:49;;;;;;;33.45;29.77;;;;;;;;;;5030328;28;20373;-81
2021/04/19 10:20:21;;;;;;;31.63;28.33;;;;;;;;;;5030117;28;20870;-81
2021/04/19 10:23:04;;;;;;;32.07;28.73;;;;;;;;;;5030402;28;20365;-84
2021/04/19 10:25:30;;;;;;;30.37;27.17;;;;;;;;;;5030389;28;20362;-80
2021/04/19 10:27:56;;;;;;;29.13;26.13;;;;;;;;;;5029911;28;20374;-81
2021/04/19 10:30:22;;;;;;;31.10;27.80;;;;;;;;;;5029181;28;20369;-82
2021/04/19 10:32:48;;;;;;;31.63;28.30;;;;;;;;;;5031424;28;20373;-80
2021/04/19 10:35:34;;;;;;;30.57;27.47;;;;;;;;;;5029928;28;20362;-81
2021/04/19 10:38:00;;;;;;;31.05;27.90;;;;;;;;;;5035950;28;20372;-80
2021/04/19 10:40:27;;;;;;;30.52;27.35;;;;;;;;;;5035734;28;20475;-82
2021/04/19 10:42:53;;;;;;;30.17;27.17;;;;;;;;;;5035208;28;20377;-79
2021/04/19 10:45:20;;;;;;;30.23;27.20;;;;;;;;;;5034025;28;20365;-81
2021/04/19 10:47:46;;;;;;;30.05;27.02;;;;;;;;;;5033870;28;20362;-82
2021/04/19 10:50:12;;;;;;;29.67;26.70;;;;;;;;;;5034333;28;20384;-86
2021/04/19 10:52:38;;;;;;;30.88;27.67;;;;;;;;;;5034351;28;20377;-86
2021/04/19 10:55:06;;;;;;;30.27;27.17;;;;;;;;;;5027696;28;20819;-85
2021/04/19 10:57:32;;;;;;;30.10;27.05;;;;;;;;;;5030161;28;20385;-86
2021/04/19 10:59:59;;;;;;;30.10;27.05;;;;;;;;;;5031931;28;20439;-86
2021/04/19 11:02:29;;;;;;;32.38;28.80;;;;;;;;;;5032221;28;20453;-85
2021/04/19 11:04:55;;;;;;;30.73;27.63;;;;;;;;;;5032318;28;20375;-80
2021/04/19 11:07:25;;;;;;;31.30;28.23;;;;;;;;;;5033404;28;20377;-82
2021/04/19 11:10:10;;;;;;;30.42;27.52;;;;;;;;;;5033447;28;20758;-80
2021/04/19 11:12:36;;;;;;;29.77;26.67;;;;;;;;;;5034245;28;20380;-80
2021/04/19 11:15:09;;;;;;;29.40;26.30;;;;;;;;;;5033011;28;20884;-81
2021/04/19 11:17:36;;;;;;;27.52;24.80;;;;;;;;;;5031654;28;20450;-79
2021/04/19 11:20:18;;;;;;;28.08;25.38;;;;;;;;;;5020845;28;20455;-83
2021/04/19 11:22:44;;;;;;;28.67;25.92;;;;;;;;;;5032106;28;20357;-82
2021/04/19 11:25:14;;;;;;;28.50;25.77;;;;;;;;;;5034183;28;20381;-83
2021/04/19 11:27:40;;;;;;;27.83;25.20;;;;;;;;;;5033572;28;20472;-81
2021/04/19 11:30:27;;;;;;;27.40;24.75;;;;;;;;;;5033136;28;20373;-82
2021/04/19 11:33:09;;;;;;;28.17;25.48;;;;;;;;;;5033288;28;20380;-81
2021/04/19 11:35:36;;;;;;;27.05;24.45;;;;;;;;;;5033174;28;20370;-82
2021/04/19 11:38:03;;;;;;;26.70;24.17;;;;;;;;;;5033904;28;20369;-82
2021/04/19 11:40:30;;;;;;;26.50;23.98;;;;;;;;;;5033509;28;20397;-80
2021/04/19 11:42:57;;;;;;;26.58;24.08;;;;;;;;;;5033558;28;20404;-81
2021/04/19 11:45:24;;;;;;;30.23;27.25;;;;;;;;;;5033405;28;20369;-81
2021/04/19 11:47:50;;;;;;;27.80;25.10;;;;;;;;;;5032038;28;20365;-81
2021/04/19 11:50:16;;;;;;;28.55;25.85;;;;;;;;;;5033080;28;20862;-80
2021/04/19 11:52:46;;;;;;;26.67;24.15;;;;;;;;;;5032597;28;20461;-82
2021/04/19 11:55:13;;;;;;;26.98;24.48;;;;;;;;;;5033096;28;20460;-80
2021/04/19 11:57:40;;;;;;;28.90;26.10;;;;;;;;;;5032893;28;20740;-82
2021/04/19 12:00:07;;;;;;;29.63;26.83;;;;;;;;;;5032729;28;20397;-81
2021/04/19 12:02:35;;;;;;;29.38;26.55;;;;;;;;;;5029637;28;20377;-83
2021/04/19 12:05:01;;;;;;;28.38;25.77;;;;;;;;;;5029563;28;20394;-80
2021/04/19 12:07:27;;;;;;;28.45;25.85;;;;;;;;;;5030809;28;20431;-83
2021/04/19 12:09:53;;;;;;;28.38;25.67;;;;;;;;;;5030333;28;20408;-82
2021/04/19 12:12:19;;;;;;;28.30;25.70;;;;;;;;;;5030193;28;20813;-82
2021/04/19 12:14:45;;;;;;;26.83;24.33;;;;;;;;;;5030417;28;20364;-81
2021/04/19 12:17:11;;;;;;;28.63;25.73;;;;;;;;;;5029386;28;20971;-81
2021/04/19 12:19:38;;;;;;;27.70;25.00;;;;;;;;;;5029757;28;20487;-83
2021/04/19 12:22:04;;;;;;;28.13;25.53;;;;;;;;;;5030145;28;21111;-81
2021/04/19 12:24:30;;;;;;;26.65;24.08;;;;;;;;;;5031436;28;20463;-82
2021/04/19 12:26:56;;;;;;;28.55;25.95;;;;;;;;;;5032038;28;20369;-85
2021/04/19 12:29:22;;;;;;;29.23;26.52;;;;;;;;;;5031983;28;20377;-81
2021/04/19 12:31:48;;;;;;;32.22;29.05;;;;;;;;;;5029828;28;20728;-80
2021/04/19 12:34:13;;;;;;;30.63;27.80;;;;;;;;;;5031195;28;20443;-80
2021/04/19 12:36:39;;;;;;;32.10;29.00;;;;;;;;;;5046668;28;20396;-79
2021/04/19 12:39:06;;;;;;;31.58;28.58;;;;;;;;;;5029753;28;20431;-80
2021/04/19 12:41:33;;;;;;;31.10;28.13;;;;;;;;;;5028119;28;20457;-79
2021/04/19 12:43:59;;;;;;;32.88;29.77;;;;;;;;;;5028292;28;20429;-80
2021/04/19 12:46:27;;;;;;;32.25;29.23;;;;;;;;;;5029896;28;20413;-80
2021/04/19 12:48:54;;;;;;;31.48;28.48;;;;;;;;;;5029491;28;20404;-80
2021/04/19 12:51:20;;;;;;;31.20;28.25;;;;;;;;;;5028003;28;20385;-80
2021/04/19 12:53:46;;;;;;;31.55;28.30;;;;;;;;;;5029737;28;20436;-79
2021/04/19 12:56:12;;;;;;;32.00;29.00;;;;;;;;;;5030363;28;20413;-80
2021/04/19 12:58:42;;;;;;;32.20;29.13;;;;;;;;;;5030125;28;20468;-80
2021/04/19 13:01:08;;;;;;;31.58;28.50;;;;;;;;;;5030543;28;20390;-80
2021/04/19 13:03:34;;;;;;;32.25;29.15;;;;;;;;;;5030982;28;20373;-80
2021/04/19 13:06:00;;;;;;;30.47;27.57;;;;;;;;;;5030001;28;20374;-80
2021/04/19 13:08:27;;;;;;;29.57;26.53;;;;;;;;;;5030831;28;20417;-80
2021/04/19 13:10:53;;;;;;;29.63;26.73;;;;;;;;;;5030957;28;20935;-80
2021/04/19 13:13:19;;;;;;;30.30;27.10;;;;;;;;;;5031219;28;20465;-80
2021/04/19 13:15:45;;;;;;;30.20;27.13;;;;;;;;;;5029300;28;20464;-80
2021/04/19 13:18:11;;;;;;;29.48;26.52;;;;;;;;;;5030756;28;20396;-80
2021/04/19 13:20:38;;;;;;;29.27;26.38;;;;;;;;;;5029805;28;20405;-82
2021/04/19 13:23:05;;;;;;;29.42;26.38;;;;;;;;;;5029354;28;20465;-82
2021/04/19 13:25:36;;;;;;;29.08;26.30;;;;;;;;;;5028895;28;20374;-85
2021/04/19 13:28:03;;;;;;;29.27;26.10;;;;;;;;;;5025955;28;20399;-79
2021/04/19 13:30:29;;;;;;;28.05;25.35;;;;;;;;;;5043782;28;20405;-80
2021/04/19 13:32:56;;;;;;;28.13;25.47;;;;;;;;;;5024528;28;20393;-80
2021/04/19 13:35:22;;;;;;;28.67;25.90;;;;;;;;;;5020195;28;20389;-80
2021/04/19 13:37:48;;;;;;;28.30;25.48;;;;;;;;;;5018595;28;20892;-80
2021/04/19 13:40:15;;;;;;;28.65;25.88;;;;;;;;;;5029051;28;20831;-80
2021/04/19 13:42:42;;;;;;;29.85;26.92;;;;;;;;;;5031559;28;20376;-81
2021/04/19 13:45:13;;;;;;;29.42;26.52;;;;;;;;;;5030122;28;20369;-81
2021/04/19 13:47:39;;;;;;;29.25;26.25;;;;;;;;;;5030432;28;20411;-83
2021/04/19 13:50:06;;;;;;;29.27;26.45;;;;;;;;;;5028705;28;20369;-80
2021/04/19 13:52:32;;;;;;;29.70;26.88;;;;;;;;;;5030403;28;20373;-82
2021/04/19 13:54:58;;;;;;;30.00;27.20;;;;;;;;;;5030542;28;20384;-81
2021/04/19 13:57:25;;;;;;;30.17;27.20;;;;;;;;;;5032127;28;20431;-82
2021/04/19 13:59:52;;;;;;;31.23;28.13;;;;;;;;;;5032164;28;20393;-81
2021/04/19 14:02:18;;;;;;;30.83;27.95;;;;;;;;;;5031936;28;20362;-80
2021/04/19 14:04:47;;;;;;;32.90;29.60;;;;;;;;;;5029999;28;20377;-83
2021/04/19 14:07:13;;;;;;;32.40;29.20;;;;;;;;;;5043812;28;20851;-81
2021/04/19 14:09:39;;;;;;;33.95;30.48;;;;;;;;;;5028603;28;20852;-80
2021/04/19 14:12:06;;;;;;;33.50;30.20;;;;;;;;;;5029541;28;20373;-80
2021/04/19 14:14:32;;;;;;;33.72;30.33;;;;;;;;;;5029844;28;20860;-81
2021/04/19 14:16:58;;;;;;;34.75;31.10;;;;;;;;;;5030175;28;20717;-82
2021/04/19 14:19:24;;;;;;;34.08;30.77;;;;;;;;;;5029796;28;20392;-80